sensor_id;sensor_type;location;lat;lon;timestamp;P1;durP1;ratioP1;P2;durP2;ratioP2
46348;SDS011;32057;47.830;19.046;2023-04-24T00:01:14;1.75;;;1.65;;
46348;SDS011;32057;47.830;19.046;2023-04-24T00:03:40;1.73;;;1.63;;
46348;SDS011;32057;47.830;19.046;2023-04-24T00:06:06;1.00;;;1.00;;
46348;SDS011;32057;47.830;19.046;2023-04-24T00:08:33;3.83;;;1.88;;
46348;SDS011;32057;47.830;19.046;2023-04-24T00:10:59;1.52;;;1.42;;
46348;SDS011;32057;47.830;19.046;2023-04-24T00:13:25;2.90;;;1.77;;
46348;SDS011;32057;47.830;19.046;2023-04-24T00:15:50;7.22;;;1.25;;
46348;SDS011;32057;47.830;19.046;2023-04-24T00:18:16;1.48;;;1.38;;
46348;SDS011;32057;47.830;19.046;2023-04-24T00:20:42;1.63;;;1.52;;
46348;SDS011;32057;47.830;19.046;2023-04-24T00:23:08;2.22;;;1.88;;
46348;SDS011;32057;47.830;19.046;2023-04-24T00:25:34;2.65;;;1.88;;
46348;SDS011;32057;47.830;19.046;2023-04-24T00:27:59;4.15;;;2.17;;
46348;SDS011;32057;47.830;19.046;2023-04-24T00:30:25;1.27;;;1.17;;
46348;SDS011;32057;47.830;19.046;2023-04-24T00:32:51;2.03;;;1.88;;
46348;SDS011;32057;47.830;19.046;2023-04-24T00:35:16;1.58;;;1.48;;
46348;SDS011;32057;47.830;19.046;2023-04-24T00:37:41;2.00;;;1.58;;
46348;SDS011;32057;47.830;19.046;2023-04-24T00:40:07;1.83;;;1.65;;
46348;SDS011;32057;47.830;19.046;2023-04-24T00:42:33;1.90;;;1.80;;
46348;SDS011;32057;47.830;19.046;2023-04-24T00:44:59;2.33;;;2.13;;
46348;SDS011;32057;47.830;19.046;2023-04-24T00:47:25;1.80;;;1.70;;
46348;SDS011;32057;47.830;19.046;2023-04-24T00:49:52;8.45;;;2.42;;
46348;SDS011;32057;47.830;19.046;2023-04-24T00:52:17;1.73;;;1.63;;
46348;SDS011;32057;47.830;19.046;2023-04-24T00:54:46;1.55;;;1.45;;
46348;SDS011;32057;47.830;19.046;2023-04-24T00:57:12;2.35;;;1.80;;
46348;SDS011;32057;47.830;19.046;2023-04-24T00:59:40;2.33;;;1.92;;
46348;SDS011;32057;47.830;19.046;2023-04-24T01:02:07;2.13;;;1.77;;
46348;SDS011;32057;47.830;19.046;2023-04-24T01:04:34;2.03;;;1.92;;
46348;SDS011;32057;47.830;19.046;2023-04-24T01:06:59;2.80;;;2.00;;
46348;SDS011;32057;47.830;19.046;2023-04-24T01:09:25;2.33;;;2.13;;
46348;SDS011;32057;47.830;19.046;2023-04-24T01:11:51;2.10;;;1.95;;
46348;SDS011;32057;47.830;19.046;2023-04-24T01:14:17;1.85;;;1.75;;
46348;SDS011;32057;47.830;19.046;2023-04-24T01:16:43;2.67;;;2.45;;
46348;SDS011;32057;47.830;19.046;2023-04-24T01:19:08;1.90;;;1.80;;
46348;SDS011;32057;47.830;19.046;2023-04-24T01:21:36;2.55;;;2.28;;
46348;SDS011;32057;47.830;19.046;2023-04-24T01:24:06;1.50;;;1.40;;
46348;SDS011;32057;47.830;19.046;2023-04-24T01:26:31;2.08;;;1.88;;
46348;SDS011;32057;47.830;19.046;2023-04-24T01:28:57;2.47;;;2.03;;
46348;SDS011;32057;47.830;19.046;2023-04-24T01:31:23;2.72;;;2.50;;
46348;SDS011;32057;47.830;19.046;2023-04-24T01:33:49;1.90;;;1.75;;
46348;SDS011;32057;47.830;19.046;2023-04-24T01:36:15;2.22;;;2.03;;
46348;SDS011;32057;47.830;19.046;2023-04-24T01:38:41;1.67;;;1.58;;
46348;SDS011;32057;47.830;19.046;2023-04-24T01:41:07;2.72;;;1.83;;
46348;SDS011;32057;47.830;19.046;2023-04-24T01:43:32;1.88;;;1.77;;
46348;SDS011;32057;47.830;19.046;2023-04-24T01:45:58;1.83;;;1.70;;
46348;SDS011;32057;47.830;19.046;2023-04-24T01:48:23;1.58;;;1.48;;
46348;SDS011;32057;47.830;19.046;2023-04-24T01:50:49;2.05;;;1.85;;
46348;SDS011;32057;47.830;19.046;2023-04-24T01:53:14;2.58;;;2.38;;
46348;SDS011;32057;47.830;19.046;2023-04-24T01:55:40;5.00;;;1.98;;
46348;SDS011;32057;47.830;19.046;2023-04-24T01:58:06;2.22;;;2.03;;
46348;SDS011;32057;47.830;19.046;2023-04-24T02:00:32;1.73;;;1.63;;
46348;SDS011;32057;47.830;19.046;2023-04-24T02:02:57;3.03;;;2.20;;
46348;SDS011;32057;47.830;19.046;2023-04-24T02:05:22;2.63;;;2.28;;
46348;SDS011;32057;47.830;19.046;2023-04-24T02:07:48;2.47;;;1.80;;
46348;SDS011;32057;47.830;19.046;2023-04-24T02:10:13;2.45;;;2.10;;
46348;SDS011;32057;47.830;19.046;2023-04-24T02:12:39;2.55;;;1.85;;
46348;SDS011;32057;47.830;19.046;2023-04-24T02:15:04;2.28;;;1.92;;
46348;SDS011;32057;47.830;19.046;2023-04-24T02:17:31;2.45;;;2.25;;
46348;SDS011;32057;47.830;19.046;2023-04-24T02:19:56;4.13;;;1.48;;
46348;SDS011;32057;47.830;19.046;2023-04-24T02:22:22;1.73;;;1.63;;
46348;SDS011;32057;47.830;19.046;2023-04-24T02:24:47;2.38;;;2.15;;
46348;SDS011;32057;47.830;19.046;2023-04-24T02:27:13;2.83;;;2.22;;
46348;SDS011;32057;47.830;19.046;2023-04-24T02:29:38;1.70;;;1.60;;
46348;SDS011;32057;47.830;19.046;2023-04-24T02:32:04;2.13;;;1.80;;
46348;SDS011;32057;47.830;19.046;2023-04-24T02:34:29;3.10;;;2.85;;
46348;SDS011;32057;47.830;19.046;2023-04-24T02:36:55;3.00;;;2.80;;
46348;SDS011;32057;47.830;19.046;2023-04-24T02:39:20;2.30;;;1.80;;
46348;SDS011;32057;47.830;19.046;2023-04-24T02:41:46;2.67;;;1.90;;
46348;SDS011;32057;47.830;19.046;2023-04-24T02:44:11;3.95;;;1.80;;
46348;SDS011;32057;47.830;19.046;2023-04-24T02:46:37;2.88;;;2.60;;
46348;SDS011;32057;47.830;19.046;2023-04-24T02:49:02;3.20;;;2.90;;
46348;SDS011;32057;47.830;19.046;2023-04-24T02:51:28;3.30;;;2.45;;
46348;SDS011;32057;47.830;19.046;2023-04-24T02:53:53;4.22;;;2.63;;
46348;SDS011;32057;47.830;19.046;2023-04-24T02:56:19;2.72;;;2.47;;
46348;SDS011;32057;47.830;19.046;2023-04-24T02:58:44;5.70;;;2.97;;
46348;SDS011;32057;47.830;19.046;2023-04-24T03:01:10;2.75;;;2.45;;
46348;SDS011;32057;47.830;19.046;2023-04-24T03:03:36;2.88;;;2.42;;
46348;SDS011;32057;47.830;19.046;2023-04-24T03:06:02;3.13;;;2.75;;
46348;SDS011;32057;47.830;19.046;2023-04-24T03:08:30;4.43;;;2.85;;
46348;SDS011;32057;47.830;19.046;2023-04-24T03:10:56;3.05;;;2.78;;
46348;SDS011;32057;47.830;19.046;2023-04-24T03:13:22;3.22;;;2.47;;
46348;SDS011;32057;47.830;19.046;2023-04-24T03:15:47;3.33;;;2.38;;
46348;SDS011;32057;47.830;19.046;2023-04-24T03:18:12;3.60;;;2.20;;
46348;SDS011;32057;47.830;19.046;2023-04-24T03:20:38;2.45;;;2.25;;
46348;SDS011;32057;47.830;19.046;2023-04-24T03:23:04;3.67;;;3.15;;
46348;SDS011;32057;47.830;19.046;2023-04-24T03:25:29;2.75;;;2.40;;
46348;SDS011;32057;47.830;19.046;2023-04-24T03:27:55;2.28;;;2.08;;
46348;SDS011;32057;47.830;19.046;2023-04-24T03:30:20;2.80;;;2.60;;
46348;SDS011;32057;47.830;19.046;2023-04-24T03:32:46;2.67;;;2.38;;
46348;SDS011;32057;47.830;19.046;2023-04-24T03:35:11;2.95;;;2.75;;
46348;SDS011;32057;47.830;19.046;2023-04-24T03:37:37;4.57;;;2.92;;
46348;SDS011;32057;47.830;19.046;2023-04-24T03:40:02;4.47;;;2.65;;
46348;SDS011;32057;47.830;19.046;2023-04-24T03:42:28;2.83;;;2.55;;
46348;SDS011;32057;47.830;19.046;2023-04-24T03:44:53;2.17;;;2.08;;
46348;SDS011;32057;47.830;19.046;2023-04-24T03:47:19;3.53;;;3.22;;
46348;SDS011;32057;47.830;19.046;2023-04-24T03:49:44;3.67;;;2.97;;
46348;SDS011;32057;47.830;19.046;2023-04-24T03:52:10;2.72;;;2.53;;
46348;SDS011;32057;47.830;19.046;2023-04-24T03:54:35;3.70;;;3.30;;
46348;SDS011;32057;47.830;19.046;2023-04-24T03:57:01;3.17;;;2.40;;
46348;SDS011;32057;47.830;19.046;2023-04-24T03:59:28;2.80;;;2.60;;
46348;SDS011;32057;47.830;19.046;2023-04-24T04:01:53;4.50;;;2.78;;
46348;SDS011;32057;47.830;19.046;2023-04-24T04:04:19;3.47;;;2.53;;
46348;SDS011;32057;47.830;19.046;2023-04-24T04:06:44;2.78;;;2.58;;
46348;SDS011;32057;47.830;19.046;2023-04-24T04:09:11;6.40;;;2.90;;
46348;SDS011;32057;47.830;19.046;2023-04-24T04:11:37;2.22;;;2.03;;
46348;SDS011;32057;47.830;19.046;2023-04-24T04:14:03;3.25;;;2.95;;
46348;SDS011;32057;47.830;19.046;2023-04-24T04:16:28;3.17;;;2.88;;
46348;SDS011;32057;47.830;19.046;2023-04-24T04:18:54;2.95;;;2.70;;
46348;SDS011;32057;47.830;19.046;2023-04-24T04:21:20;2.05;;;1.80;;
46348;SDS011;32057;47.830;19.046;2023-04-24T04:23:45;3.28;;;2.90;;
46348;SDS011;32057;47.830;19.046;2023-04-24T04:26:11;2.30;;;2.10;;
46348;SDS011;32057;47.830;19.046;2023-04-24T04:28:37;3.47;;;3.10;;
46348;SDS011;32057;47.830;19.046;2023-04-24T04:31:04;2.85;;;2.65;;
46348;SDS011;32057;47.830;19.046;2023-04-24T04:33:29;4.55;;;3.28;;
46348;SDS011;32057;47.830;19.046;2023-04-24T04:35:56;4.43;;;3.47;;
46348;SDS011;32057;47.830;19.046;2023-04-24T04:38:22;6.18;;;3.10;;
46348;SDS011;32057;47.830;19.046;2023-04-24T04:40:48;4.60;;;3.20;;
46348;SDS011;32057;47.830;19.046;2023-04-24T04:43:14;3.58;;;2.92;;
46348;SDS011;32057;47.830;19.046;2023-04-24T04:45:42;3.03;;;2.72;;
46348;SDS011;32057;47.830;19.046;2023-04-24T04:48:08;4.30;;;3.35;;
46348;SDS011;32057;47.830;19.046;2023-04-24T04:50:36;4.05;;;3.25;;
46348;SDS011;32057;47.830;19.046;2023-04-24T04:53:02;4.55;;;3.38;;
46348;SDS011;32057;47.830;19.046;2023-04-24T04:55:27;3.50;;;3.17;;
46348;SDS011;32057;47.830;19.046;2023-04-24T04:57:53;3.80;;;3.50;;
46348;SDS011;32057;47.830;19.046;2023-04-24T05:00:20;3.65;;;3.03;;
46348;SDS011;32057;47.830;19.046;2023-04-24T05:02:46;5.43;;;3.60;;
46348;SDS011;32057;47.830;19.046;2023-04-24T05:05:11;7.28;;;4.70;;
46348;SDS011;32057;47.830;19.046;2023-04-24T05:07:37;5.00;;;3.38;;
46348;SDS011;32057;47.830;19.046;2023-04-24T05:10:02;5.18;;;3.50;;
46348;SDS011;32057;47.830;19.046;2023-04-24T05:12:28;3.60;;;3.30;;
46348;SDS011;32057;47.830;19.046;2023-04-24T05:14:53;4.38;;;3.92;;
46348;SDS011;32057;47.830;19.046;2023-04-24T05:17:19;7.88;;;4.10;;
46348;SDS011;32057;47.830;19.046;2023-04-24T05:19:44;3.63;;;3.13;;
46348;SDS011;32057;47.830;19.046;2023-04-24T05:22:10;3.60;;;3.28;;
46348;SDS011;32057;47.830;19.046;2023-04-24T05:24:36;5.43;;;4.43;;
46348;SDS011;32057;47.830;19.046;2023-04-24T05:27:02;4.55;;;3.83;;
46348;SDS011;32057;47.830;19.046;2023-04-24T05:29:29;4.18;;;3.05;;
46348;SDS011;32057;47.830;19.046;2023-04-24T05:31:56;6.25;;;4.07;;
46348;SDS011;32057;47.830;19.046;2023-04-24T05:34:21;3.50;;;3.20;;
46348;SDS011;32057;47.830;19.046;2023-04-24T05:36:47;3.92;;;3.33;;
46348;SDS011;32057;47.830;19.046;2023-04-24T05:39:13;4.93;;;3.83;;
46348;SDS011;32057;47.830;19.046;2023-04-24T05:41:38;3.85;;;3.53;;
46348;SDS011;32057;47.830;19.046;2023-04-24T05:44:04;3.45;;;3.15;;
46348;SDS011;32057;47.830;19.046;2023-04-24T05:46:30;13.45;;;3.55;;
46348;SDS011;32057;47.830;19.046;2023-04-24T05:48:55;4.00;;;3.15;;
46348;SDS011;32057;47.830;19.046;2023-04-24T05:51:21;4.22;;;3.65;;
46348;SDS011;32057;47.830;19.046;2023-04-24T05:53:46;5.60;;;3.80;;
46348;SDS011;32057;47.830;19.046;2023-04-24T05:56:11;4.50;;;3.38;;
46348;SDS011;32057;47.830;19.046;2023-04-24T05:58:37;3.15;;;2.92;;
46348;SDS011;32057;47.830;19.046;2023-04-24T06:01:03;4.57;;;3.72;;
46348;SDS011;32057;47.830;19.046;2023-04-24T06:03:28;3.15;;;2.80;;
46348;SDS011;32057;47.830;19.046;2023-04-24T06:05:54;4.22;;;3.83;;
46348;SDS011;32057;47.830;19.046;2023-04-24T06:08:19;4.55;;;3.33;;
46348;SDS011;32057;47.830;19.046;2023-04-24T06:10:45;4.05;;;3.70;;
46348;SDS011;32057;47.830;19.046;2023-04-24T06:13:10;4.20;;;3.47;;
46348;SDS011;32057;47.830;19.046;2023-04-24T06:15:36;5.60;;;3.40;;
46348;SDS011;32057;47.830;19.046;2023-04-24T06:18:02;5.20;;;2.97;;
46348;SDS011;32057;47.830;19.046;2023-04-24T06:20:28;5.47;;;3.50;;
46348;SDS011;32057;47.830;19.046;2023-04-24T06:22:53;5.15;;;4.15;;
46348;SDS011;32057;47.830;19.046;2023-04-24T06:25:19;4.57;;;3.75;;
46348;SDS011;32057;47.830;19.046;2023-04-24T06:27:45;3.30;;;3.00;;
46348;SDS011;32057;47.830;19.046;2023-04-24T06:30:11;3.65;;;3.00;;
46348;SDS011;32057;47.830;19.046;2023-04-24T06:32:36;2.60;;;2.40;;
46348;SDS011;32057;47.830;19.046;2023-04-24T06:35:02;3.45;;;2.75;;
46348;SDS011;32057;47.830;19.046;2023-04-24T06:37:27;3.70;;;3.10;;
46348;SDS011;32057;47.830;19.046;2023-04-24T06:39:53;3.35;;;3.03;;
46348;SDS011;32057;47.830;19.046;2023-04-24T06:42:18;4.45;;;4.00;;
46348;SDS011;32057;47.830;19.046;2023-04-24T06:44:46;5.45;;;3.17;;
46348;SDS011;32057;47.830;19.046;2023-04-24T06:47:11;4.43;;;3.38;;
46348;SDS011;32057;47.830;19.046;2023-04-24T06:49:38;3.88;;;3.05;;
46348;SDS011;32057;47.830;19.046;2023-04-24T06:52:04;3.33;;;3.03;;
46348;SDS011;32057;47.830;19.046;2023-04-24T06:54:31;3.83;;;3.53;;
46348;SDS011;32057;47.830;19.046;2023-04-24T06:56:57;3.13;;;2.83;;
46348;SDS011;32057;47.830;19.046;2023-04-24T06:59:23;3.78;;;3.25;;
46348;SDS011;32057;47.830;19.046;2023-04-24T07:01:49;3.35;;;2.75;;
46348;SDS011;32057;47.830;19.046;2023-04-24T07:04:16;3.47;;;3.13;;
46348;SDS011;32057;47.830;19.046;2023-04-24T07:06:42;5.07;;;3.95;;
46348;SDS011;32057;47.830;19.046;2023-04-24T07:09:11;3.15;;;2.88;;
46348;SDS011;32057;47.830;19.046;2023-04-24T07:11:36;3.08;;;2.78;;
46348;SDS011;32057;47.830;19.046;2023-04-24T07:14:04;2.58;;;2.30;;
46348;SDS011;32057;47.830;19.046;2023-04-24T07:16:29;4.70;;;3.33;;
46348;SDS011;32057;47.830;19.046;2023-04-24T07:18:55;8.45;;;3.97;;
46348;SDS011;32057;47.830;19.046;2023-04-24T07:21:20;3.13;;;2.83;;
46348;SDS011;32057;47.830;19.046;2023-04-24T07:23:46;3.33;;;2.13;;
46348;SDS011;32057;47.830;19.046;2023-04-24T07:26:11;3.08;;;2.53;;
46348;SDS011;32057;47.830;19.046;2023-04-24T07:28:37;2.72;;;2.30;;
46348;SDS011;32057;47.830;19.046;2023-04-24T07:31:02;5.72;;;3.80;;
46348;SDS011;32057;47.830;19.046;2023-04-24T07:33:28;2.50;;;2.30;;
46348;SDS011;32057;47.830;19.046;2023-04-24T07:35:54;3.45;;;2.97;;
46348;SDS011;32057;47.830;19.046;2023-04-24T07:38:19;3.55;;;2.72;;
46348;SDS011;32057;47.830;19.046;2023-04-24T07:40:48;4.80;;;3.60;;
46348;SDS011;32057;47.830;19.046;2023-04-24T07:43:14;4.13;;;2.80;;
46348;SDS011;32057;47.830;19.046;2023-04-24T07:45:39;7.22;;;4.18;;
46348;SDS011;32057;47.830;19.046;2023-04-24T07:48:05;3.30;;;3.00;;
46348;SDS011;32057;47.830;19.046;2023-04-24T07:50:31;3.63;;;3.05;;
46348;SDS011;32057;47.830;19.046;2023-04-24T07:52:56;3.05;;;2.75;;
46348;SDS011;32057;47.830;19.046;2023-04-24T07:55:22;3.33;;;2.78;;
46348;SDS011;32057;47.830;19.046;2023-04-24T07:57:48;4.15;;;3.03;;
46348;SDS011;32057;47.830;19.046;2023-04-24T08:00:13;3.70;;;3.25;;
46348;SDS011;32057;47.830;19.046;2023-04-24T08:02:39;3.88;;;2.88;;
46348;SDS011;32057;47.830;19.046;2023-04-24T08:05:05;3.45;;;3.05;;
46348;SDS011;32057;47.830;19.046;2023-04-24T08:07:31;2.42;;;2.22;;
46348;SDS011;32057;47.830;19.046;2023-04-24T08:09:56;5.05;;;2.72;;
46348;SDS011;32057;47.830;19.046;2023-04-24T08:12:22;3.63;;;3.03;;
46348;SDS011;32057;47.830;19.046;2023-04-24T08:14:47;3.38;;;3.00;;
46348;SDS011;32057;47.830;19.046;2023-04-24T08:17:13;2.45;;;2.25;;
46348;SDS011;32057;47.830;19.046;2023-04-24T08:19:39;4.10;;;3.30;;
46348;SDS011;32057;47.830;19.046;2023-04-24T08:22:09;3.40;;;2.97;;
46348;SDS011;32057;47.830;19.046;2023-04-24T08:24:34;2.60;;;2.40;;
46348;SDS011;32057;47.830;19.046;2023-04-24T08:27:00;3.88;;;3.03;;
46348;SDS011;32057;47.830;19.046;2023-04-24T08:29:26;3.42;;;3.13;;
46348;SDS011;32057;47.830;19.046;2023-04-24T08:31:51;3.97;;;3.47;;
46348;SDS011;32057;47.830;19.046;2023-04-24T08:34:19;3.45;;;2.33;;
46348;SDS011;32057;47.830;19.046;2023-04-24T08:36:44;3.10;;;2.80;;
46348;SDS011;32057;47.830;19.046;2023-04-24T08:39:10;3.28;;;2.97;;
46348;SDS011;32057;47.830;19.046;2023-04-24T08:41:35;6.93;;;3.25;;
46348;SDS011;32057;47.830;19.046;2023-04-24T08:44:02;4.18;;;2.83;;
46348;SDS011;32057;47.830;19.046;2023-04-24T08:46:29;3.75;;;3.45;;
46348;SDS011;32057;47.830;19.046;2023-04-24T08:48:55;3.55;;;3.10;;
46348;SDS011;32057;47.830;19.046;2023-04-24T08:51:21;3.00;;;2.63;;
46348;SDS011;32057;47.830;19.046;2023-04-24T08:53:47;3.42;;;3.13;;
46348;SDS011;32057;47.830;19.046;2023-04-24T08:56:13;5.57;;;3.67;;
46348;SDS011;32057;47.830;19.046;2023-04-24T08:58:39;19.23;;;3.33;;
46348;SDS011;32057;47.830;19.046;2023-04-24T09:01:05;4.15;;;3.53;;
46348;SDS011;32057;47.830;19.046;2023-04-24T09:03:32;5.13;;;3.13;;
46348;SDS011;32057;47.830;19.046;2023-04-24T09:05:58;2.95;;;2.67;;
46348;SDS011;32057;47.830;19.046;2023-04-24T09:08:25;3.40;;;3.03;;
46348;SDS011;32057;47.830;19.046;2023-04-24T09:10:51;3.75;;;2.45;;
46348;SDS011;32057;47.830;19.046;2023-04-24T09:13:17;7.45;;;3.17;;
46348;SDS011;32057;47.830;19.046;2023-04-24T09:15:44;3.40;;;3.08;;
46348;SDS011;32057;47.830;19.046;2023-04-24T09:18:10;2.95;;;2.75;;
46348;SDS011;32057;47.830;19.046;2023-04-24T09:20:51;5.68;;;4.57;;
46348;SDS011;32057;47.830;19.046;2023-04-24T09:23:25;2.83;;;2.63;;
46348;SDS011;32057;47.830;19.046;2023-04-24T09:26:00;4.95;;;3.67;;
46348;SDS011;32057;47.830;19.046;2023-04-24T09:28:31;4.68;;;3.00;;
46348;SDS011;32057;47.830;19.046;2023-04-24T09:33:29;3.40;;;2.97;;
46348;SDS011;32057;47.830;19.046;2023-04-24T09:35:54;2.55;;;2.35;;
46348;SDS011;32057;47.830;19.046;2023-04-24T09:38:30;2.88;;;2.67;;
46348;SDS011;32057;47.830;19.046;2023-04-24T09:40:58;4.35;;;3.00;;
46348;SDS011;32057;47.830;19.046;2023-04-24T09:43:26;2.90;;;2.63;;
46348;SDS011;32057;47.830;19.046;2023-04-24T09:45:53;2.88;;;2.55;;
46348;SDS011;32057;47.830;19.046;2023-04-24T09:48:35;3.58;;;3.00;;
46348;SDS011;32057;47.830;19.046;2023-04-24T09:51:03;5.00;;;2.28;;
46348;SDS011;32057;47.830;19.046;2023-04-24T09:53:32;2.50;;;2.30;;
46348;SDS011;32057;47.830;19.046;2023-04-24T09:56:07;2.42;;;2.22;;
46348;SDS011;32057;47.830;19.046;2023-04-24T09:58:34;2.53;;;2.33;;
46348;SDS011;32057;47.830;19.046;2023-04-24T10:01:01;3.08;;;2.70;;
46348;SDS011;32057;47.830;19.046;2023-04-24T10:03:29;4.80;;;2.92;;
46348;SDS011;32057;47.830;19.046;2023-04-24T10:05:59;3.03;;;2.80;;
46348;SDS011;32057;47.830;19.046;2023-04-24T10:08:25;4.40;;;3.22;;
46348;SDS011;32057;47.830;19.046;2023-04-24T10:10:57;7.85;;;5.00;;
46348;SDS011;32057;47.830;19.046;2023-04-24T10:13:24;3.30;;;3.00;;
46348;SDS011;32057;47.830;19.046;2023-04-24T10:15:50;2.35;;;2.15;;
46348;SDS011;32057;47.830;19.046;2023-04-24T10:18:16;2.58;;;2.20;;
46348;SDS011;32057;47.830;19.046;2023-04-24T10:20:42;2.53;;;2.33;;
46348;SDS011;32057;47.830;19.046;2023-04-24T10:23:08;2.63;;;2.42;;
46348;SDS011;32057;47.830;19.046;2023-04-24T10:25:34;2.10;;;1.98;;
46348;SDS011;32057;47.830;19.046;2023-04-24T10:28:01;2.63;;;2.42;;
46348;SDS011;32057;47.830;19.046;2023-04-24T10:30:32;2.60;;;2.40;;
46348;SDS011;32057;47.830;19.046;2023-04-24T10:33:04;4.38;;;3.25;;
46348;SDS011;32057;47.830;19.046;2023-04-24T10:35:33;2.83;;;1.92;;
46348;SDS011;32057;47.830;19.046;2023-04-24T10:38:03;2.72;;;2.45;;
46348;SDS011;32057;47.830;19.046;2023-04-24T10:40:32;4.18;;;2.70;;
46348;SDS011;32057;47.830;19.046;2023-04-24T10:42:59;2.60;;;2.25;;
46348;SDS011;32057;47.830;19.046;2023-04-24T10:45:27;2.40;;;2.20;;
46348;SDS011;32057;47.830;19.046;2023-04-24T10:50:18;2.47;;;2.28;;
46348;SDS011;32057;47.830;19.046;2023-04-24T10:52:48;2.17;;;2.00;;
46348;SDS011;32057;47.830;19.046;2023-04-24T10:55:16;3.63;;;2.95;;
46348;SDS011;32057;47.830;19.046;2023-04-24T10:58:04;1.65;;;1.55;;
46348;SDS011;32057;47.830;19.046;2023-04-24T11:00:30;2.55;;;2.30;;
46348;SDS011;32057;47.830;19.046;2023-04-24T11:02:56;2.67;;;2.15;;
46348;SDS011;32057;47.830;19.046;2023-04-24T11:05:22;1.92;;;1.80;;
46348;SDS011;32057;47.830;19.046;2023-04-24T11:08:16;2.35;;;1.80;;
46348;SDS011;32057;47.830;19.046;2023-04-24T11:11:08;2.13;;;1.95;;
46348;SDS011;32057;47.830;19.046;2023-04-24T11:21:59;4.65;;;2.63;;
46348;SDS011;32057;47.830;19.046;2023-04-24T11:29:42;3.47;;;2.55;;
46348;SDS011;32057;47.830;19.046;2023-04-24T11:32:38;2.20;;;2.00;;
46348;SDS011;32057;47.830;19.046;2023-04-24T11:35:09;2.50;;;2.20;;
46348;SDS011;32057;47.830;19.046;2023-04-24T11:37:50;2.90;;;2.70;;
46348;SDS011;32057;47.830;19.046;2023-04-24T11:40:18;6.20;;;2.58;;
46348;SDS011;32057;47.830;19.046;2023-04-24T11:42:46;2.35;;;2.17;;
46348;SDS011;32057;47.830;19.046;2023-04-24T11:45:13;2.42;;;2.22;;
46348;SDS011;32057;47.830;19.046;2023-04-24T11:47:43;2.95;;;2.35;;
46348;SDS011;32057;47.830;19.046;2023-04-24T11:50:11;2.20;;;2.00;;
46348;SDS011;32057;47.830;19.046;2023-04-24T11:52:39;2.85;;;2.65;;
46348;SDS011;32057;47.830;19.046;2023-04-24T11:55:27;2.85;;;2.65;;
46348;SDS011;32057;47.830;19.046;2023-04-24T11:57:53;2.42;;;2.15;;
46348;SDS011;32057;47.830;19.046;2023-04-24T12:00:24;2.40;;;2.13;;
46348;SDS011;32057;47.830;19.046;2023-04-24T12:02:50;3.38;;;3.13;;
46348;SDS011;32057;47.830;19.046;2023-04-24T12:05:20;3.72;;;2.45;;
46348;SDS011;32057;47.830;19.046;2023-04-24T12:07:46;2.88;;;2.60;;
46348;SDS011;32057;47.830;19.046;2023-04-24T12:10:11;2.47;;;1.77;;
46348;SDS011;32057;47.830;19.046;2023-04-24T12:12:37;2.85;;;2.40;;
46348;SDS011;32057;47.830;19.046;2023-04-24T12:15:06;2.80;;;2.53;;
46348;SDS011;32057;47.830;19.046;2023-04-24T12:17:33;2.97;;;2.65;;
46348;SDS011;32057;47.830;19.046;2023-04-24T12:22:45;2.30;;;2.10;;
46348;SDS011;32057;47.830;19.046;2023-04-24T12:25:16;2.15;;;1.92;;
46348;SDS011;32057;47.830;19.046;2023-04-24T12:27:43;3.22;;;2.40;;
46348;SDS011;32057;47.830;19.046;2023-04-24T12:30:11;3.30;;;3.00;;
46348;SDS011;32057;47.830;19.046;2023-04-24T12:32:45;3.60;;;2.92;;
46348;SDS011;32057;47.830;19.046;2023-04-24T12:35:11;4.72;;;2.80;;
46348;SDS011;32057;47.830;19.046;2023-04-24T12:37:37;4.40;;;2.95;;
46348;SDS011;32057;47.830;19.046;2023-04-24T12:40:08;4.63;;;2.88;;
46348;SDS011;32057;47.830;19.046;2023-04-24T12:42:35;2.60;;;2.40;;
46348;SDS011;32057;47.830;19.046;2023-04-24T12:45:06;3.15;;;2.85;;
46348;SDS011;32057;47.830;19.046;2023-04-24T12:47:33;2.47;;;2.28;;
46348;SDS011;32057;47.830;19.046;2023-04-24T12:49:59;4.20;;;2.83;;
46348;SDS011;32057;47.830;19.046;2023-04-24T12:52:26;2.72;;;2.40;;
46348;SDS011;32057;47.830;19.046;2023-04-24T12:54:54;3.80;;;3.05;;
46348;SDS011;32057;47.830;19.046;2023-04-24T12:57:21;4.38;;;3.17;;
46348;SDS011;32057;47.830;19.046;2023-04-24T12:59:48;3.60;;;2.78;;
46348;SDS011;32057;47.830;19.046;2023-04-24T13:02:13;3.80;;;2.50;;
46348;SDS011;32057;47.830;19.046;2023-04-24T13:04:42;3.22;;;2.13;;
46348;SDS011;32057;47.830;19.046;2023-04-24T13:07:08;3.58;;;2.78;;
46348;SDS011;32057;47.830;19.046;2023-04-24T13:09:34;3.00;;;2.03;;
46348;SDS011;32057;47.830;19.046;2023-04-24T13:12:00;3.22;;;2.92;;
46348;SDS011;32057;47.830;19.046;2023-04-24T13:14:26;2.53;;;2.33;;
46348;SDS011;32057;47.830;19.046;2023-04-24T13:16:51;2.63;;;2.42;;
46348;SDS011;32057;47.830;19.046;2023-04-24T13:19:17;2.28;;;2.08;;
46348;SDS011;32057;47.830;19.046;2023-04-24T13:21:43;3.00;;;2.70;;
46348;SDS011;32057;47.830;19.046;2023-04-24T13:24:09;3.65;;;3.03;;
46348;SDS011;32057;47.830;19.046;2023-04-24T13:26:35;3.47;;;2.95;;
46348;SDS011;32057;47.830;19.046;2023-04-24T13:29:03;4.15;;;3.38;;
46348;SDS011;32057;47.830;19.046;2023-04-24T13:31:28;4.05;;;2.60;;
46348;SDS011;32057;47.830;19.046;2023-04-24T13:33:54;5.10;;;3.22;;
46348;SDS011;32057;47.830;19.046;2023-04-24T13:36:19;3.28;;;2.97;;
46348;SDS011;32057;47.830;19.046;2023-04-24T13:38:45;4.18;;;3.78;;
46348;SDS011;32057;47.830;19.046;2023-04-24T13:41:10;4.90;;;3.88;;
46348;SDS011;32057;47.830;19.046;2023-04-24T13:43:36;6.85;;;3.65;;
46348;SDS011;32057;47.830;19.046;2023-04-24T13:46:01;2.90;;;2.70;;
46348;SDS011;32057;47.830;19.046;2023-04-24T13:48:28;2.65;;;2.30;;
46348;SDS011;32057;47.830;19.046;2023-04-24T13:50:54;2.53;;;2.15;;
46348;SDS011;32057;47.830;19.046;2023-04-24T13:53:19;4.32;;;2.90;;
46348;SDS011;32057;47.830;19.046;2023-04-24T13:55:45;3.45;;;2.20;;
46348;SDS011;32057;47.830;19.046;2023-04-24T13:58:10;2.78;;;2.55;;
46348;SDS011;32057;47.830;19.046;2023-04-24T14:00:36;3.55;;;2.55;;
46348;SDS011;32057;47.830;19.046;2023-04-24T14:03:01;2.95;;;2.55;;
46348;SDS011;32057;47.830;19.046;2023-04-24T14:05:27;6.93;;;3.42;;
46348;SDS011;32057;47.830;19.046;2023-04-24T14:07:52;5.00;;;3.17;;
46348;SDS011;32057;47.830;19.046;2023-04-24T14:10:17;3.65;;;2.45;;
46348;SDS011;32057;47.830;19.046;2023-04-24T14:12:43;3.85;;;3.10;;
46348;SDS011;32057;47.830;19.046;2023-04-24T14:15:08;3.53;;;2.30;;
46348;SDS011;32057;47.830;19.046;2023-04-24T14:17:35;3.08;;;2.78;;
46348;SDS011;32057;47.830;19.046;2023-04-24T14:20:00;5.18;;;2.42;;
46348;SDS011;32057;47.830;19.046;2023-04-24T14:22:26;1.98;;;1.88;;
46348;SDS011;32057;47.830;19.046;2023-04-24T14:24:52;2.05;;;1.85;;
46348;SDS011;32057;47.830;19.046;2023-04-24T14:27:17;2.50;;;1.75;;
46348;SDS011;32057;47.830;19.046;2023-04-24T14:29:43;1.65;;;1.55;;
46348;SDS011;32057;47.830;19.046;2023-04-24T14:32:10;2.00;;;1.88;;
46348;SDS011;32057;47.830;19.046;2023-04-24T14:34:35;1.75;;;1.65;;
46348;SDS011;32057;47.830;19.046;2023-04-24T14:37:01;1.60;;;1.50;;
46348;SDS011;32057;47.830;19.046;2023-04-24T14:39:26;2.63;;;2.03;;
46348;SDS011;32057;47.830;19.046;2023-04-24T14:41:52;3.03;;;2.15;;
46348;SDS011;32057;47.830;19.046;2023-04-24T14:44:17;2.72;;;2.08;;
46348;SDS011;32057;47.830;19.046;2023-04-24T14:46:42;2.15;;;1.75;;
46348;SDS011;32057;47.830;19.046;2023-04-24T14:49:08;2.85;;;2.25;;
46348;SDS011;32057;47.830;19.046;2023-04-24T14:51:35;4.65;;;2.30;;